Tombstone, AZ

12:39 AM MST on September 03, 2014 (GMT -0700)
Dragoon Mountain Ranch 3 | Change Station
CLOSE
Current Station
Personal Weather Station
Location: Saint David, AZ
Elevation: 4580 ft
Nearby Weather Stations

Elev 4580 ft 31.86 °N, 110.08 °W | Updated 46 seconds ago

Clear
Clear
71.3 °F
Feels Like 77 °F
N
1.0
Wind Variable Wind from ESE
Gusts 5.0 mph

Today
High -- | Low -- °F
--% Chance of Precip.
Yesterday
High -- | Low -- °F
Precip. -- in
5:57 AM 6:41 PM
First Quarter, 59% visible
Pressure 30.05 in
Visibility 10.0 miles
Clouds Few 28000 ft
Heat Index 77 °F
Dew Point 54 °F
Humidity 55%
Rainfall 0.00 in
Snow Depth Not available.
UV 0 out of 12
Pollen 6.90 out of 12
Air Quality Not available.
Flu Activity Not available.
METAR KFHU 030655Z 23009KT 10SM FEW280 26/07 A3005 RMK SLPNO

More Conditions Fewer Conditions

Pressure 30.05 in
Visibility 10.0 miles
Clouds Few 28000 ft
Heat Index 77 °F
Dew Point 54 °F
Humidity 55%
Rainfall 0.00 in
Snow Depth Not available.
UV 0 out of 12
Pollen 6.90 out of 12
Air Quality Not available.
Flu Activity Not available.
METAR KFHU 030655Z 23009KT 10SM FEW280 26/07 A3005 RMK SLPNO

More Conditions Fewer Conditions

10-Day Weather Forecast

Almanac

Astronomy

Sep. 03, 2014 Rise Set
Actual Time 5:57 AM MST 6:41 PM MST
Civil Twilight 5:32 AM MST 7:06 PM MST
Nautical Twilight 5:03 AM MST 7:35 PM MST
Astronomical Twilight 4:33 AM MST 8:05 PM MST
Moon 2:15 PM MST 12:05 AM MST
Length of Visible Light 13h 33m
Length of Day
12h 44m
Tomorrow will be 1m 53s shorter.
First Quarter, 59% of the Moon is Illuminated
Today
First Quarter
Sep 8
Full
Sep 15
Last Quarter
Sep 24
New
Oct 1
First Quarter

Today's Extremes

State Highs State Lows

Community

WunderPhotos

Upload Photos

1,749,891 photos uploaded!

Nearby

Snow Depth

Station Depth Elevation
Beaver Head 24 in 7990 ft
Coronado Trail 0 in 8400 ft
Workman Creek 2 in 6900 ft
Maverick Fork 0 in 9200 ft
White Horse Lake 0 in 7180 ft

Earthquake Activity

City Distance Mag. Time & Date
Lordsburg, New Mexico 82 miles 2.8 7:52 PM MST
2014-09-02
Lordsburg, New Mexico 84 miles 2.6 8:21 AM MST
2014-09-02
Minimum magnitude displayed is 2.5.

Coastal Water Temperatures

Place Temperature
No Stations Reporting

Nearby Weather Stations